Paris, TX

4:59 AM CDT on April 01, 2015 (GMT -0500)
Ambia | | Change Station
CLOSE
Current Station
Personal Weather Station
Location: Roxton, TX
Elevation: 548 ft
Nearby Weather Stations

Elev 548 ft 33.60 °N, 95.67 °W | Updated 2 minutes ago

Mostly Cloudy
Mostly Cloudy
64.2 °F
Feels Like 64.2 °F
N
2.2
Wind Variable Wind from SE

Today
High -- | Low -- °F
--% Chance of Precip.
Yesterday
High -- | Low -- °F
Precip. -- in
7:09 AM 7:42 PM
Waxing Gibbous, 92% visible
Pressure 29.93 in
Visibility 10.0 miles
Clouds Overcast 3300 ft
Dew Point 60 °F
Humidity 86%
Rainfall 0.00 in
Snow Depth Not available.
UV 0 out of 12
Pollen 11.60 out of 12
Air Quality Not available.
Flu Activity Not available.
METAR KHHW 010935Z AUTO 07003KT 10SM VCTS OVC033 20/14 A2993 RMK AO2 LTG DSNT NW THRU NE T01950138

More Conditions Fewer Conditions

Pressure 29.93 in
Visibility 10.0 miles
Clouds Overcast 3300 ft
Dew Point 60 °F
Humidity 86%
Rainfall 0.00 in
Snow Depth Not available.
UV 0 out of 12
Pollen 11.60 out of 12
Air Quality Not available.
Flu Activity Not available.
METAR KHHW 010935Z AUTO 07003KT 10SM VCTS OVC033 20/14 A2993 RMK AO2 LTG DSNT NW THRU NE T01950138

More Conditions Fewer Conditions

Nowcast | as of 2:56 am CDT on April 1, 2015

Some light rain and showers will move into the western counties before daybreak while light rain exits from around Paris. Any rainfall should average less than one tenth of an inch. Elsewhere...mild and humid conditions will prevail...with early morning temperatures generally in the 60s. High clouds will continue across the region while low clouds increase over the central I-35 corridor and areas to the east.

×

10-Day Weather Forecast

Almanac

Astronomy

Apr. 01, 2015 Rise Set
Actual Time
Civil Twilight
Nautical Twilight
Astronomical Twilight
Moon
Length of Visible Light
Length of Day
Tomorrow will be .
, % of the Moon is Illuminated

Today's Extremes

State Highs State Lows

Community

WunderPhotos

Upload Photos

1,809,933 photos uploaded!

WunderBlogs® & News

Nearby

Air Quality

  Air Quality AQ Index Pollutant
Not available.

Snow Depth

Station Depth Elevation

Earthquake Activity

City Distance Mag. Time & Date
Minimum magnitude displayed is 2.5.

Coastal Water Temperatures

Place Temperature

Stations

Nearby Weather Stations

Station Location Temp. Windchill Dew Point Humidity Wind Precip. Elev Updated Type